^^
Grace C. Lehan Memorial Weather Station Historical Data
Daily Summary for March 6, 2021 Units:  Metric    English   Both
Daily Weekly Monthly Yearly
  High: Low: Average:
Temperature: 5.9 °C 0.7 °C 2.2 °C
Dew Point: -0.2 °C -4.2 °C -2.3 °C
Humidity: 85% 60.4% 73%
Wind Speed: 14.6km/h 0km/h 6.1km/h
Wind Gust: 35.4km/h - -
Wind- - NW
Pressure: 1014.4 hPa 1011.4 hPa -
Precipitation: 0 mm    
 
 
Tabular Data for March 6, 2021
Time Temperature Dew Point Pressure Wind Wind Speed Wind Gust Humidity Rainfall Rate (Hourly) solar
00:04 2.3 °C -0.4 °C 1011.7 hPa NNW 0.3 km/h 8 km/h 82.5% 0 mm 0 W/m2
00:09 2.3 °C -0.3 °C 1011.7 hPa Calm   6.4 km/h 83% 0 mm 0 W/m2
00:14 2.3 °C -0.3 °C 1011.7 hPa Calm   6.4 km/h 83% 0 mm 0 W/m2
00:19 2.2 °C -0.3 °C 1011.7 hPa Calm   6.4 km/h 83% 0 mm 0 W/m2
00:24 2.2 °C -0.3 °C 1011.7 hPa Calm   6.4 km/h 83% 0 mm 0 W/m2
00:29 2.2 °C -0.4 °C 1011.7 hPa Calm   6.4 km/h 83% 0 mm 0 W/m2
00:34 2.2 °C -0.4 °C 1011.7 hPa Calm   6.4 km/h 83% 0 mm 0 W/m2
00:39 2.1 °C -0.4 °C 1011.7 hPa Calm     83% 0 mm 0 W/m2
00:44 2.1 °C -0.4 °C 1011.7 hPa Calm     83.1% 0 mm 0 W/m2
00:49 2.1 °C -0.3 °C 1011.7 hPa NNW 0.2 km/h 3.2 km/h 84% 0 mm 0 W/m2
00:54 2.1 °C -0.3 °C 1011.7 hPa NNW 0.2 km/h 3.2 km/h 84% 0 mm 0 W/m2
00:59 2.1 °C -0.3 °C 1011.7 hPa Calm   3.2 km/h 84% 0 mm 0 W/m2
01:04 2.1 °C -0.3 °C 1011.7 hPa Calm   3.2 km/h 84% 0 mm 0 W/m2
01:09 2.1 °C -0.3 °C 1011.7 hPa Calm     84% 0 mm 0 W/m2
01:14 2.1 °C -0.3 °C 1011.7 hPa Calm     84% 0 mm 0 W/m2
01:19 2.1 °C -0.2 °C 1011.7 hPa Calm   1.6 km/h 84.7% 0 mm 0 W/m2
01:24 2.1 °C -0.2 °C 1011.7 hPa NNW 1.3 km/h 6.4 km/h 85% 0 mm 0 W/m2
01:29 2.1 °C -0.2 °C 1011.7 hPa NNW 0.8 km/h 6.4 km/h 85% 0 mm 0 W/m2
01:34 2.1 °C -0.2 °C 1011.7 hPa NNW 0.6 km/h 6.4 km/h 85% 0 mm 0 W/m2
01:39 2.1 °C -0.2 °C 1011.7 hPa NNW 0.3 km/h 3.2 km/h 85% 0 mm 0 W/m2
01:44 2.1 °C -0.2 °C 1011.7 hPa NNW 0.8 km/h 6.4 km/h 85% 0 mm 0 W/m2
01:49 2.1 °C -0.2 °C 1011.7 hPa Calm   6.4 km/h 85% 0 mm 0 W/m2
01:54 2.1 °C -0.2 °C 1011.7 hPa Calm   6.4 km/h 85% 0 mm 0 W/m2
01:59 2.1 °C -0.2 °C 1011.7 hPa Calm   6.4 km/h 85% 0 mm 0 W/m2
02:04 2.1 °C -0.2 °C 1011.7 hPa Calm   6.4 km/h 85% 0 mm 0 W/m2
02:09 2.1 °C -0.2 °C 1011.7 hPa Calm     85% 0 mm 0 W/m2
02:14 2 °C -0.2 °C 1011.7 hPa Calm     85% 0 mm 0 W/m2
02:19 2 °C -0.3 °C 1011.7 hPa Calm     85% 0 mm 0 W/m2
02:24 1.9 °C -0.3 °C 1011.7 hPa NNW 0.5 km/h 6.4 km/h 85% 0 mm 0 W/m2
02:29 1.9 °C -0.3 °C 1011.7 hPa NNW 2.7 km/h 8 km/h 85% 0 mm 0 W/m2
02:34 1.9 °C -0.3 °C 1011.7 hPa NNW 2.7 km/h 8 km/h 85% 0 mm 0 W/m2
02:39 1.9 °C -0.4 °C 1011.7 hPa Calm   6.4 km/h 84.7% 0 mm 0 W/m2
02:44 1.9 °C -0.5 °C 1011.7 hPa NNW 1 km/h 6.4 km/h 84% 0 mm 0 W/m2
02:49 1.9 °C -0.5 °C 1011.7 hPa NNW 0.6 km/h 6.4 km/h 84% 0 mm 0 W/m2
02:54 1.9 °C -0.6 °C 1011.7 hPa NW 3.1 km/h 11.3 km/h 83.4% 0 mm 0 W/m2
02:59 1.8 °C -0.7 °C 1011.7 hPa NW 1.6 km/h 11.3 km/h 83% 0 mm 0 W/m2
03:04 1.8 °C -0.7 °C 1011.7 hPa NW 1.9 km/h 11.3 km/h 83% 0 mm 0 W/m2
03:09 1.8 °C -0.9 °C 1011.7 hPa WNW 3.4 km/h 11.3 km/h 82.2% 0 mm 0 W/m2
03:14 1.8 °C -0.9 °C 1011.7 hPa WNW 3.5 km/h 11.3 km/h 82% 0 mm 0 W/m2
03:19 1.8 °C -0.9 °C 1011.7 hPa WNW 2.4 km/h 11.3 km/h 82% 0 mm 0 W/m2
03:24 1.8 °C -1 °C 1011.7 hPa NW 4.7 km/h 11.3 km/h 81.4% 0 mm 0 W/m2
03:29 1.8 °C -1.1 °C 1011.7 hPa WNW 3.4 km/h 11.3 km/h 81% 0 mm 0 W/m2
03:34 1.8 °C -1.1 °C 1011.7 hPa WNW 3.1 km/h 11.3 km/h 81% 0 mm 0 W/m2
03:39 1.8 °C -1.2 °C 1011.7 hPa WNW 5.5 km/h 11.3 km/h 80.1% 0 mm 0 W/m2
03:44 1.8 °C -1.3 °C 1011.7 hPa NW 5.1 km/h 11.3 km/h 79.6% 0 mm 0 W/m2
03:49 1.8 °C -1.4 °C 1011.7 hPa NW 1.6 km/h 11.3 km/h 79% 0 mm 0 W/m2
03:54 1.8 °C -1.4 °C 1011.7 hPa NW 3.1 km/h 11.3 km/h 79% 0 mm 0 W/m2
03:59 1.8 °C -1.6 °C 1011.7 hPa NW 4.2 km/h 11.3 km/h 78.5% 0 mm 0 W/m2
04:00 1.8 °C -1.7 °C 1011.7 hPa NW 4.8 km/h 11.3 km/h 78% 0 mm 0 W/m2
04:09 1.8 °C -1.7 °C 1011.7 hPa NW 4 km/h 9.7 km/h 77.8% 0 mm 0 W/m2
04:14 1.8 °C -1.8 °C 1011.7 hPa NW 1.9 km/h 9.7 km/h 77% 0 mm 0 W/m2
04:19 1.7 °C -1.8 °C 1011.4 hPa NW 3.2 km/h 16.1 km/h 77% 0 mm 0 W/m2
04:24 1.7 °C -1.9 °C 1011.7 hPa NW 2.9 km/h 16.1 km/h 77% 0 mm 0 W/m2
04:29 1.7 °C -1.9 °C 1011.4 hPa NW 1 km/h 16.1 km/h 76.8% 0 mm 0 W/m2
04:34 1.7 °C -1.9 °C 1011.7 hPa NW 0.6 km/h 16.1 km/h 76.5% 0 mm 0 W/m2
04:39 1.7 °C -2.1 °C 1011.7 hPa NW 2.3 km/h 9.7 km/h 76% 0 mm 0 W/m2
04:44 1.7 °C -2.1 °C 1011.7 hPa NW 4.7 km/h 11.3 km/h 76% 0 mm 0 W/m2
04:49 1.6 °C -2.2 °C 1011.7 hPa NW 2.3 km/h 11.3 km/h 76% 0 mm 0 W/m2
04:54 1.6 °C -2.2 °C 1011.7 hPa NW 3.9 km/h 11.3 km/h 76% 0 mm 0 W/m2
04:59 1.6 °C -2.2 °C 1011.7 hPa NW 5 km/h 17.7 km/h 76% 0 mm 0 W/m2
05:04 1.6 °C -2.2 °C 1011.7 hPa NW 1.8 km/h 17.7 km/h 76% 0 mm 0 W/m2
05:09 1.6 °C -2.2 °C 1011.7 hPa WNW 3.4 km/h 17.7 km/h 76% 0 mm 0 W/m2
05:14 1.6 °C -2.2 °C 1011.7 hPa NW 4.3 km/h 17.7 km/h 76% 0 mm 0 W/m2
05:19 1.6 °C -2.2 °C 1011.7 hPa NW 2.7 km/h 17.7 km/h 76% 0 mm 0 W/m2
05:24 1.6 °C -2.3 °C 1011.7 hPa NNW 2.6 km/h 17.7 km/h 75.7% 0 mm 0 W/m2
05:29 1.6 °C -2.3 °C 1011.7 hPa NW 5.8 km/h 17.7 km/h 75.2% 0 mm 0 W/m2
05:34 1.6 °C -2.4 °C 1011.7 hPa NW 6.3 km/h 19.3 km/h 75% 0 mm 0 W/m2
05:39 1.6 °C -2.4 °C 1011.7 hPa NW 7.2 km/h 25.7 km/h 75% 0 mm 0 W/m2
05:44 1.6 °C -2.3 °C 1011.7 hPa NW 4.8 km/h 25.7 km/h 75% 0 mm 0 W/m2
05:49 1.6 °C -2.3 °C 1011.7 hPa NW 8.5 km/h 25.7 km/h 75% 0 mm 0 W/m2
05:54 1.6 °C -2.5 °C 1011.7 hPa NW 6 km/h 25.7 km/h 74.1% 0 mm 0 W/m2
05:59 1.6 °C -2.6 °C 1011.7 hPa NW 7.9 km/h 25.7 km/h 74% 0 mm 0 W/m2
06:04 1.6 °C -2.6 °C 1011.7 hPa NW 6.6 km/h 25.7 km/h 74% 0 mm 0 W/m2
06:09 1.6 °C -2.6 °C 1011.7 hPa NW 2.9 km/h 22.5 km/h 74% 0 mm 0 W/m2
06:14 1.5 °C -2.6 °C 1011.7 hPa NW 5.6 km/h 22.5 km/h 74.1% 0 mm 0 W/m2
06:19 1.4 °C -2.7 °C 1011.7 hPa NW 6.9 km/h 22.5 km/h 74% 0 mm 0 W/m2
06:24 1.4 °C -2.7 °C 1011.7 hPa NW 8.7 km/h 22.5 km/h 74% 0 mm 0 W/m2
06:29 1.4 °C -2.7 °C 1011.7 hPa NW 5.3 km/h 22.5 km/h 74% 0 mm 0 W/m2
06:34 1.4 °C -2.8 °C 1012.1 hPa NW 6.8 km/h 22.5 km/h 74% 0 mm 0 W/m2
06:39 1.3 °C -2.7 °C 1012.1 hPa NW 7.6 km/h 22.5 km/h 74.4% 0 mm 0 W/m2
06:44 1.3 °C -2.8 °C 1012.1 hPa NW 6.1 km/h 22.5 km/h 74.3% 0 mm 0 W/m2
06:49 1.3 °C -2.7 °C 1012.4 hPa WNW 7.6 km/h 22.5 km/h 75% 0 mm 0 W/m2
06:54 1.2 °C -2.7 °C 1012.1 hPa NNW 1.1 km/h 22.5 km/h 75% 0 mm 0 W/m2
06:59 1.2 °C -2.7 °C 1012.4 hPa NW 4 km/h 22.5 km/h 75% 0 mm 0 W/m2
07:04 1.2 °C -2.7 °C 1012.4 hPa NW 3.5 km/h 22.5 km/h 75.3% 0 mm 0 W/m2
07:09 1.2 °C -2.7 °C 1012.4 hPa NW 5.1 km/h 16.1 km/h 75.3% 0 mm 0 W/m2
07:14 1.2 °C -2.8 °C 1012.4 hPa NW 4.5 km/h 16.1 km/h 75% 0 mm 0 W/m2
07:19 1.2 °C -2.7 °C 1012.4 hPa NW 7.1 km/h 19.3 km/h 75% 0 mm 0 W/m2
07:24 1.2 °C -2.7 °C 1012.8 hPa NW 3.2 km/h 19.3 km/h 75% 0 mm 5 W/m2
07:29 1.2 °C -2.7 °C 1012.8 hPa NW 4.2 km/h 19.3 km/h 75% 0 mm 9 W/m2
07:34 1.2 °C -2.7 °C 1012.8 hPa WNW 3.7 km/h 19.3 km/h 75% 0 mm 9 W/m2
07:39 1.3 °C -2.7 °C 1012.8 hPa NW 2.6 km/h 11.3 km/h 75% 0 mm 12 W/m2
07:44 1.3 °C -2.7 °C 1012.8 hPa NW 2.1 km/h 11.3 km/h 75% 0 mm 16 W/m2
07:49 1.3 °C -2.7 °C 1012.8 hPa NW 3.5 km/h 11.3 km/h 75% 0 mm 19 W/m2
07:54 1.3 °C -2.7 °C 1012.8 hPa NNW 4.5 km/h 19.3 km/h 75% 0 mm 23 W/m2
07:59 1.3 °C -2.6 °C 1013.1 hPa NW 2.1 km/h 19.3 km/h 75% 0 mm 26 W/m2
08:04 1.3 °C -2.8 °C 1013.1 hPa Calm     74% 0 mm 30 W/m2
08:09 1.3 °C -2.7 °C 1013.1 hPa NW 3.9 km/h 11.3 km/h 74.7% 0 mm 35 W/m2
08:14 1.4 °C -2.6 °C 1013.1 hPa NW 6.4 km/h 17.7 km/h 75% 0 mm 40 W/m2
08:19 1.4 °C -2.6 °C 1013.1 hPa NW 3.5 km/h 17.7 km/h 74.7% 0 mm 49 W/m2
08:24 1.4 °C -2.6 °C 1013.1 hPa NW 5.8 km/h 20.9 km/h 74.2% 0 mm 56 W/m2
08:29 1.5 °C -2.7 °C 1013.1 hPa NW 6.3 km/h 20.9 km/h 74% 0 mm 63 W/m2
08:34 1.5 °C -2.7 °C 1013.1 hPa NW 8.5 km/h 20.9 km/h 73.8% 0 mm 67 W/m2
08:39 1.6 °C -2.6 °C 1013.1 hPa NW 5.5 km/h 20.9 km/h 73.9% 0 mm 72 W/m2
08:44 1.6 °C -2.6 °C 1013.1 hPa NW 6.8 km/h 20.9 km/h 73.7% 0 mm 79 W/m2
08:49 1.6 °C -2.6 °C 1013.4 hPa NNW 9 km/h 20.9 km/h 73.5% 0 mm 88 W/m2
08:54 1.7 °C -2.7 °C 1013.1 hPa NW 9 km/h 22.5 km/h 73% 0 mm 93 W/m2
08:59 1.7 °C -2.6 °C 1013.4 hPa NW 7.7 km/h 22.5 km/h 73% 0 mm 98 W/m2
09:04 1.7 °C -2.6 °C 1013.4 hPa NNW 8.7 km/h 22.5 km/h 72.9% 0 mm 109 W/m2
09:09 1.8 °C -2.7 °C 1013.4 hPa NNW 5.8 km/h 19.3 km/h 72.1% 0 mm 109 W/m2
09:14 1.8 °C -2.6 °C 1013.4 hPa NW 7.9 km/h 19.3 km/h 72.2% 0 mm 111 W/m2
09:19 1.9 °C -2.6 °C 1013.4 hPa NNW 11.1 km/h 22.5 km/h 72% 0 mm 113 W/m2
09:24 1.9 °C -2.6 °C 1013.4 hPa NW 7.6 km/h 27.4 km/h 72% 0 mm 113 W/m2
09:29 2 °C -2.5 °C 1013.8 hPa NW 6.8 km/h 27.4 km/h 72% 0 mm 90 W/m2
09:34 2 °C -2.3 °C 1013.8 hPa NW 13 km/h 27.4 km/h 72.9% 0 mm 60 W/m2
09:39 1.9 °C -2.7 °C 1013.4 hPa NW 5 km/h 24.1 km/h 71.1% 0 mm 165 W/m2
09:44 2.1 °C -2.4 °C 1013.8 hPa North 3.5 km/h 24.1 km/h 72% 0 mm 118 W/m2
09:49 2.3 °C -2.3 °C 1013.4 hPa NNW 5.6 km/h 24.1 km/h 71.8% 0 mm 104 W/m2
09:54 2.4 °C -2.2 °C 1013.4 hPa NNW 8.9 km/h 24.1 km/h 71% 0 mm 93 W/m2
09:59 2.6 °C -2.3 °C 1013.4 hPa NNW 11.3 km/h 24.1 km/h 70.1% 0 mm 91 W/m2
10:04 2.6 °C -2.3 °C 1013.4 hPa NW 5.8 km/h 24.1 km/h 70% 0 mm 121 W/m2
10:09 2.7 °C -2.2 °C 1013.4 hPa NW 8 km/h 22.5 km/h 70% 0 mm 142 W/m2
10:14 2.9 °C -2 °C 1013.8 hPa NW 6.8 km/h 22.5 km/h 70% 0 mm 241 W/m2
10:19 3.2 °C -1.9 °C 1013.4 hPa NW 8.5 km/h 22.5 km/h 69.1% 0 mm 281 W/m2
10:24 3.5 °C -1.7 °C 1013.4 hPa NNW 6.8 km/h 22.5 km/h 68.5% 0 mm 378 W/m2
10:29 3.9 °C -1.4 °C 1013.4 hPa NW 4 km/h 22.5 km/h 68% 0 mm 378 W/m2
10:34 4.3 °C -1.3 °C 1013.4 hPa NW 7.7 km/h 22.5 km/h 67% 0 mm 448 W/m2
10:39 4.7 °C -1.4 °C 1013.4 hPa NW 12.9 km/h 24.1 km/h 64.8% 0 mm 468 W/m2
10:44 4.7 °C -1.7 °C 1013.1 hPa NNW 13.2 km/h 24.1 km/h 63.2% 0 mm 482 W/m2
10:49 4.8 °C -1.6 °C 1013.1 hPa NNW 10.8 km/h 24.1 km/h 63.3% 0 mm 503 W/m2
10:54 5.1 °C -1.4 °C 1013.1 hPa NW 12.4 km/h 24.1 km/h 62.9% 0 mm 487 W/m2
10:59 5.3 °C -1.1 °C 1013.1 hPa NNW 6 km/h 24.1 km/h 63.4% 0 mm 483 W/m2
11:04 5.6 °C -1.1 °C 1013.1 hPa North 7.4 km/h 24.1 km/h 62.5% 0 mm 483 W/m2
11:09 5.8 °C -0.9 °C 1012.8 hPa NNW 7.4 km/h 22.5 km/h 62% 0 mm 315 W/m2
11:14 5.9 °C -0.9 °C 1012.8 hPa NW 5 km/h 22.5 km/h 61.7% 0 mm 308 W/m2
11:19 5.8 °C -1.2 °C 1012.8 hPa NW 12.2 km/h 29 km/h 60.4% 0 mm 285 W/m2
11:24 5.6 °C -1.4 °C 1012.8 hPa NW 12.1 km/h 35.4 km/h 60.9% 0 mm 274 W/m2
11:29 5.3 °C -1.7 °C 1012.8 hPa NW 11.9 km/h 35.4 km/h 60.9% 0 mm 446 W/m2
11:34 5.1 °C -1.7 °C 1012.8 hPa NW 14 km/h 35.4 km/h 61.4% 0 mm 366 W/m2
11:39 4.9 °C -1.7 °C 1012.8 hPa NNW 8.2 km/h 27.4 km/h 62.2% 0 mm 274 W/m2
11:44 4.9 °C -1.7 °C 1012.8 hPa NNW 10.9 km/h 27.4 km/h 62.3% 0 mm 223 W/m2
11:49 4.7 °C -1.9 °C 1012.8 hPa NW 9.7 km/h 27.4 km/h 62% 0 mm 272 W/m2
11:54 4.6 °C -1.8 °C 1012.8 hPa NW 6.8 km/h 27.4 km/h 63.2% 0 mm 272 W/m2
11:59 4.5 °C -1.8 °C 1012.8 hPa NW 7.4 km/h 27.4 km/h 63.4% 0 mm 213 W/m2
12:00 4.4 °C -1.8 °C 1012.4 hPa NW 11.3 km/h 27.4 km/h 64% 0 mm 207 W/m2
12:09 4.2 °C -2.2 °C 1012.8 hPa WNW 13 km/h 27.4 km/h 63% 0 mm 206 W/m2
12:14 4 °C -2.1 °C 1012.8 hPa NW 8 km/h 27.4 km/h 64.5% 0 mm 183 W/m2
12:19 3.9 °C -2.2 °C 1012.8 hPa NNW 11.6 km/h 27.4 km/h 64.7% 0 mm 183 W/m2
12:24 3.8 °C -2.3 °C 1012.8 hPa NW 13.7 km/h 27.4 km/h 64.2% 0 mm 179 W/m2
12:29 3.7 °C -2.4 °C 1012.4 hPa NW 10 km/h 27.4 km/h 64.1% 0 mm 165 W/m2
12:34 3.6 °C -2.3 °C 1012.4 hPa NW 14.5 km/h 27.4 km/h 65% 0 mm 174 W/m2
12:39 3.6 °C -2.4 °C 1012.4 hPa NW 13.4 km/h 25.7 km/h 64.8% 0 mm 188 W/m2
12:44 3.6 °C -2.4 °C 1012.4 hPa NW 8.9 km/h 25.7 km/h 64.8% 0 mm 207 W/m2
12:49 3.7 °C -2.2 °C 1012.4 hPa NW 7.1 km/h 25.7 km/h 65.3% 0 mm 225 W/m2
12:54 3.8 °C -2.3 °C 1012.4 hPa NW 12.4 km/h 25.7 km/h 64.4% 0 mm 202 W/m2
12:59 3.8 °C -2.4 °C 1012.4 hPa NW 14 km/h 27.4 km/h 63.7% 0 mm 178 W/m2
13:04 3.8 °C -2.5 °C 1012.4 hPa NW 7.4 km/h 27.4 km/h 63.6% 0 mm 216 W/m2
13:09 3.8 °C -2.3 °C 1012.4 hPa NW 10.9 km/h 25.7 km/h 64.2% 0 mm 172 W/m2
13:14 3.9 °C -2.5 °C 1012.4 hPa WNW 11.6 km/h 25.7 km/h 63.1% 0 mm 204 W/m2
13:19 3.8 °C -2.6 °C 1012.4 hPa NW 14.6 km/h 27.4 km/h 63% 0 mm 209 W/m2
13:24 3.8 °C -2.7 °C 1012.4 hPa NW 12.7 km/h 27.4 km/h 62.7% 0 mm 167 W/m2
13:29 3.7 °C -2.7 °C 1012.4 hPa NW 11.7 km/h 29 km/h 63% 0 mm 153 W/m2
13:34 3.7 °C -2.7 °C 1012.4 hPa NW 14 km/h 29 km/h 63% 0 mm 155 W/m2
13:39 3.6 °C -2.7 °C 1012.4 hPa NW 6.1 km/h 30.6 km/h 63.4% 0 mm 149 W/m2
13:44 3.6 °C -2.5 °C 1012.4 hPa NW 14 km/h 30.6 km/h 64.1% 0 mm 142 W/m2
13:49 3.6 °C -2.7 °C 1012.4 hPa NW 12.6 km/h 30.6 km/h 63.5% 0 mm 144 W/m2
13:54 3.5 °C -2.9 °C 1012.4 hPa WNW 13.4 km/h 30.6 km/h 63% 0 mm 165 W/m2
13:59 3.4 °C -2.7 °C 1012.4 hPa NW 12.1 km/h 30.6 km/h 63.8% 0 mm 209 W/m2
14:04 3.5 °C -2.7 °C 1012.4 hPa NW 9 km/h 30.6 km/h 64% 0 mm 149 W/m2
14:09 3.5 °C -2.7 °C 1012.4 hPa NW 9.8 km/h 30.6 km/h 64% 0 mm 109 W/m2
14:14 3.4 °C -2.7 °C 1012.4 hPa WNW 11.7 km/h 30.6 km/h 64% 0 mm 84 W/m2
14:19 3.3 °C -2.8 °C 1012.4 hPa NW 9 km/h 30.6 km/h 64% 0 mm 67 W/m2
14:24 3.2 °C -2.9 °C 1012.4 hPa WNW 9.8 km/h 30.6 km/h 64.2% 0 mm 60 W/m2
14:29 3.1 °C -2.9 °C 1012.4 hPa NW 10.5 km/h 30.6 km/h 65% 0 mm 121 W/m2
14:34 3.1 °C -2.8 °C 1012.4 hPa NW 10.1 km/h 30.6 km/h 65.2% 0 mm 128 W/m2
14:39 3.1 °C -2.9 °C 1012.8 hPa NW 6.3 km/h 27.4 km/h 65% 0 mm 142 W/m2
14:44 3.1 °C -2.9 °C 1012.8 hPa NW 6.3 km/h 27.4 km/h 65% 0 mm 35 W/m2
14:48 3.1 °C -2.9 °C 1012.8 hPa NW 7.2 km/h 27.4 km/h 65% 0 mm 42 W/m2
15:00 3.2 °C -2.8 °C 1012.8 hPa NW 8 km/h 27.4 km/h 65% 0 mm 48 W/m2
15:30 2.8 °C -2.9 °C 1012.8 hPa NW 8 km/h 24.1 km/h 66% 0 mm 25 W/m2
16:09 2.4 °C -3.3 °C 1013.4 hPa NW 5.6 km/h 24.1 km/h 66% 0 mm 25 W/m2
16:14 2.3 °C -3.2 °C 1013.4 hPa NW 7.2 km/h 16.1 km/h 67% 0 mm 9 W/m2
16:19 2.3 °C -3.2 °C 1013.4 hPa NW 6.6 km/h 20.9 km/h 67% 0 mm 9 W/m2
16:24 2.2 °C -3.3 °C 1013.4 hPa WNW 6.8 km/h 20.9 km/h 67% 0 mm 7 W/m2
16:29 2.1 °C -3.3 °C 1013.4 hPa NW 7.4 km/h 20.9 km/h 67% 0 mm 5 W/m2
16:34 2 °C -3.4 °C 1013.4 hPa NW 10.1 km/h 20.9 km/h 67.4% 0 mm 0 W/m2
16:39 1.9 °C -3.5 °C 1013.4 hPa NW 13.8 km/h 27.4 km/h 67.5% 0 mm 0 W/m2
16:44 1.8 °C -3.5 °C 1013.4 hPa NW 9.5 km/h 27.4 km/h 68% 0 mm 0 W/m2
16:49 1.7 °C -3.6 °C 1013.4 hPa NW 9.5 km/h 27.4 km/h 68.2% 0 mm 0 W/m2
16:54 1.6 °C -3.5 °C 1013.4 hPa NW 11.3 km/h 27.4 km/h 69% 0 mm 0 W/m2
16:59 1.4 °C -3.6 °C 1013.8 hPa NW 7.2 km/h 27.4 km/h 69.3% 0 mm 0 W/m2
17:04 1.4 °C -3.5 °C 1013.8 hPa NW 5.8 km/h 27.4 km/h 70% 0 mm 0 W/m2
17:09 1.3 °C -3.5 °C 1013.8 hPa NW 8.9 km/h 22.5 km/h 70.5% 0 mm 0 W/m2
17:14 1.2 °C -3.5 °C 1013.8 hPa NW 6.3 km/h 24.1 km/h 71% 0 mm 0 W/m2
17:19 1.1 °C -3.6 °C 1013.8 hPa NW 7.9 km/h 24.1 km/h 71% 0 mm 0 W/m2
17:24 1.1 °C -3.6 °C 1014.1 hPa NW 5.5 km/h 24.1 km/h 71% 0 mm 0 W/m2
17:29 1.1 °C -3.4 °C 1014.1 hPa NW 8.2 km/h 24.1 km/h 71.8% 0 mm 0 W/m2
17:34 1 °C -3.2 °C 1014.1 hPa NW 7.7 km/h 24.1 km/h 73.7% 0 mm 0 W/m2
17:39 0.9 °C -3.5 °C 1014.1 hPa NW 8.5 km/h 22.5 km/h 72% 0 mm 0 W/m2
17:44 0.9 °C -3.6 °C 1014.1 hPa NW 8 km/h 22.5 km/h 72% 0 mm 0 W/m2
17:49 0.9 °C -3.6 °C 1014.1 hPa NW 5 km/h 22.5 km/h 72% 0 mm 0 W/m2
17:54 0.9 °C -3.6 °C 1014.1 hPa NW 6.4 km/h 22.5 km/h 72% 0 mm 0 W/m2
17:59 0.9 °C -3.6 °C 1014.1 hPa NW 4 km/h 22.5 km/h 72% 0 mm 0 W/m2
18:01 0.9 °C -3.6 °C 1014.1 hPa NW 5.8 km/h 22.5 km/h 72% 0 mm 0 W/m2
18:30 0.7 °C -3.6 °C 1014.1 hPa NW 3.2 km/h 19.3 km/h 73% 0 mm 0 W/m2
19:00 0.8 °C -3.3 °C 1014.1 hPa NW 3.2 km/h 20.9 km/h 74% 0 mm 0 W/m2
19:30 1.1 °C -3.2 °C 1014.4 hPa NW 3.2 km/h 17.7 km/h 73% 0 mm 0 W/m2
20:04 1.3 °C -3.1 °C 1014.4 hPa NW 4.8 km/h 17.7 km/h 72.5% 0 mm 0 W/m2
20:09 1.4 °C -2.9 °C 1014.1 hPa NNW 3.2 km/h 14.5 km/h 72.8% 0 mm 0 W/m2
20:14 1.4 °C -3 °C 1014.1 hPa NNW 1.6 km/h 14.5 km/h 72.4% 0 mm 0 W/m2
20:19 1.4 °C -2.9 °C 1014.1 hPa NNW 6.8 km/h 22.5 km/h 72.8% 0 mm 0 W/m2
20:24 1.4 °C -3.1 °C 1014.4 hPa NW 2.3 km/h 22.5 km/h 72% 0 mm 0 W/m2
20:29 1.5 °C -3 °C 1014.4 hPa NW 3.1 km/h 22.5 km/h 72% 0 mm 0 W/m2
20:34 1.5 °C -3 °C 1014.4 hPa NW 3.7 km/h 22.5 km/h 72% 0 mm 0 W/m2
20:39 1.5 °C -3 °C 1014.4 hPa NW 2.7 km/h 17.7 km/h 72% 0 mm 0 W/m2
20:44 1.5 °C -3 °C 1014.4 hPa NW 3.1 km/h 17.7 km/h 72% 0 mm 0 W/m2
20:49 1.5 °C -3 °C 1014.4 hPa NW 5.5 km/h 24.1 km/h 72% 0 mm 0 W/m2
20:54 1.6 °C -2.9 °C 1014.4 hPa NW 9.8 km/h 24.1 km/h 72% 0 mm 0 W/m2
20:59 1.6 °C -2.9 °C 1014.4 hPa NW 5.1 km/h 24.1 km/h 72% 0 mm 0 W/m2
21:04 1.6 °C -2.9 °C 1014.1 hPa NW 8.5 km/h 24.1 km/h 72% 0 mm 0 W/m2
21:09 1.6 °C -2.9 °C 1014.4 hPa NW 4.2 km/h 17.7 km/h 72% 0 mm 0 W/m2
21:14 1.6 °C -2.9 °C 1014.1 hPa NW 9 km/h 27.4 km/h 72% 0 mm 0 W/m2
21:19 1.6 °C -3 °C 1014.4 hPa NNW 8 km/h 27.4 km/h 71.5% 0 mm 0 W/m2
21:24 1.6 °C -3.1 °C 1014.4 hPa NNW 8.5 km/h 27.4 km/h 71% 0 mm 0 W/m2
21:29 1.6 °C -3.1 °C 1014.4 hPa NW 7.2 km/h 27.4 km/h 71% 0 mm 0 W/m2
21:34 1.6 °C -3.1 °C 1014.1 hPa NW 4.2 km/h 27.4 km/h 71% 0 mm 0 W/m2
21:39 1.6 °C -3.1 °C 1014.1 hPa NW 7.7 km/h 17.7 km/h 71% 0 mm 0 W/m2
21:44 1.6 °C -3.1 °C 1014.4 hPa NW 7.9 km/h 20.9 km/h 71% 0 mm 0 W/m2
21:49 1.6 °C -3.1 °C 1014.4 hPa NW 5.8 km/h 20.9 km/h 71% 0 mm 0 W/m2
21:54 1.6 °C -3.3 °C 1014.4 hPa NW 10.6 km/h 27.4 km/h 70.3% 0 mm 0 W/m2
21:59 1.6 °C -3.3 °C 1014.4 hPa NW 5.8 km/h 27.4 km/h 70% 0 mm 0 W/m2
22:04 1.6 °C -3.3 °C 1014.4 hPa NW 2.4 km/h 27.4 km/h 70% 0 mm 0 W/m2
22:09 1.6 °C -3.3 °C 1014.4 hPa NW 9.7 km/h 25.7 km/h 70% 0 mm 0 W/m2
22:14 1.5 °C -3.4 °C 1014.4 hPa NNW 11.1 km/h 25.7 km/h 70% 0 mm 0 W/m2
22:19 1.5 °C -3.6 °C 1014.4 hPa NW 10 km/h 25.7 km/h 69.1% 0 mm 0 W/m2
22:24 1.4 °C -3.6 °C 1014.4 hPa NW 9 km/h 25.7 km/h 69% 0 mm 0 W/m2
22:29 1.4 °C -3.6 °C 1014.4 hPa NW 10.3 km/h 25.7 km/h 69% 0 mm 0 W/m2
22:34 1.4 °C -3.7 °C 1014.4 hPa NW 8 km/h 25.7 km/h 69% 0 mm 0 W/m2
22:39 1.4 °C -3.7 °C 1014.4 hPa NNW 9 km/h 20.9 km/h 69% 0 mm 0 W/m2
22:44 1.3 °C -3.7 °C 1014.4 hPa NNW 5.3 km/h 22.5 km/h 69% 0 mm 0 W/m2
22:49 1.3 °C -3.8 °C 1014.4 hPa NW 5.6 km/h 22.5 km/h 69% 0 mm 0 W/m2
22:54 1.3 °C -3.8 °C 1014.4 hPa NNW 7.1 km/h 22.5 km/h 69% 0 mm 0 W/m2
22:59 1.2 °C -3.8 °C 1014.4 hPa NNW 6.3 km/h 22.5 km/h 69% 0 mm 0 W/m2
23:04 1.2 °C -3.9 °C 1014.1 hPa NW 9.7 km/h 9.7 km/h 69% 0 mm 0 W/m2
23:09 1.2 °C -3.9 °C 1014.1 hPa NW 7.9 km/h 16.1 km/h 69% 0 mm 0 W/m2
23:14 1.2 °C -3.9 °C 1014.1 hPa NW 7.2 km/h 19.3 km/h 69% 0 mm 0 W/m2
23:19 1.1 °C -4 °C 1014.1 hPa NW 10.1 km/h 29 km/h 68.7% 0 mm 0 W/m2
23:24 1.1 °C -4.1 °C 1014.1 hPa NW 8.9 km/h 29 km/h 68% 0 mm 0 W/m2
23:29 1.1 °C -4.1 °C 1014.1 hPa NW 6.8 km/h 29 km/h 68% 0 mm 0 W/m2
23:34 1.1 °C -4.2 °C 1014.1 hPa NW 5.8 km/h 29 km/h 68% 0 mm 0 W/m2
23:39 1.1 °C -4.2 °C 1014.1 hPa NW 7.9 km/h 20.9 km/h 68% 0 mm 0 W/m2
23:44 1.1 °C -4.2 °C 1014.4 hPa NW 6.3 km/h 20.9 km/h 68% 0 mm 0 W/m2
23:49 1 °C -4.2 °C 1014.4 hPa NW 9.8 km/h 20.9 km/h 68% 0 mm 0 W/m2
23:54 1 °C -4.2 °C 1014.4 hPa NW 9.2 km/h 22.5 km/h 68% 0 mm 0 W/m2
23:59 1 °C -4.2 °C 1014.1 hPa NW 6.1 km/h 22.5 km/h 68% 0 mm 0 W/m2
Hartford County Weather
Compliments of Weather Underground - 4 mb